| time (UTC) | temp C | wind direction | speed KPH | gust KPH | rain 1hr cm | rain 24hr cm | rain mn cm | humidity % | barometer mb |
| 20260506183215 | 19 | 4 | 0.0 | 0.0 | 0.00 | 0.00 | 0.00 | 79 | 1007.4 |
| 20260506182712 | 19 | 213 | 0.0 | 0.0 | 0.00 | 0.00 | 0.00 | 79 | 1007.5 |
| 20260506182209 | 19 | 143 | 0.0 | 0.0 | 0.00 | 0.00 | 0.00 | 79 | 1007.6 |
| 20260506181707 | 19 | 188 | 0.0 | 0.0 | 0.00 | 0.00 | 0.00 | 79 | 1007.4 |
| 20260506181204 | 19 | 142 | 0.0 | 0.0 | 0.00 | 0.00 | 0.00 | 78 | 1007.6 |
| 20260506180701 | 19 | 137 | 6.4 | 9.7 | 0.00 | 0.00 | 0.00 | 78 | 1007.6 |
| 20260506180157 | 19 | 237 | 3.2 | 4.8 | 0.00 | 0.00 | 0.00 | 78 | 1007.6 |
| 20260506175654 | 19 | 210 | 1.6 | 3.2 | 0.00 | 0.00 | 0.00 | 78 | 1007.5 |
| 20260506175151 | 19 | 259 | 1.6 | 3.2 | 0.00 | 0.00 | 0.00 | 78 | 1007.7 |
| 20260506174649 | 19 | 238 | 0.0 | 1.6 | 0.00 | 0.00 | 0.00 | 78 | 1007.8 |
| 20260506174145 | 19 | 123 | 4.8 | 8.0 | 0.00 | 0.00 | 0.00 | 78 | 1007.7 |
| 20260506173643 | 20 | 161 | 0.0 | 0.0 | 0.00 | 0.00 | 0.00 | 75 | 1008.0 |
| 20260506173134 | 20 | 81 | 4.8 | 11.3 | 0.00 | 0.00 | 0.00 | 74 | 1007.9 |
| 20260506172631 | 20 | 136 | 4.8 | 8.0 | 0.00 | 0.00 | 0.00 | 73 | 1008.0 |
| 20260506172127 | 20 | 213 | 1.6 | 1.6 | 0.00 | 0.00 | 0.00 | 72 | 1008.0 |
| 20260506171625 | 20 | 96 | 3.2 | 3.2 | 0.00 | 0.00 | 0.00 | 72 | 1008.2 |
| 20260506171123 | 20 | 341 | 0.0 | 0.0 | 0.00 | 0.00 | 0.00 | 73 | 1008.0 |
| 20260506170620 | 20 | 63 | 0.0 | 0.0 | 0.00 | 0.00 | 0.00 | 72 | 1007.8 |
| 20260506170117 | 21 | 176 | 0.0 | 1.6 | 0.00 | 0.00 | 0.00 | 72 | 1008.3 |
| 20260506165615 | 21 | 273 | 3.2 | 4.8 | 0.00 | 0.00 | 0.00 | 72 | 1008.0 |
| 20260506165111 | 21 | 227 | 4.8 | 9.7 | 0.00 | 0.00 | 0.00 | 71 | 1008.0 |
| 20260506164608 | 21 | 135 | 4.8 | 8.0 | 0.00 | 0.00 | 0.00 | 72 | 1008.3 |
| 20260506164106 | 20 | 145 | 0.0 | 0.0 | 0.00 | 0.00 | 0.00 | 75 | 1008.3 |
| 20260506163601 | 20 | 260 | 0.0 | 0.0 | 0.00 | 0.00 | 0.00 | 75 | 1008.5 |
| 20260506163058 | 20 | 117 | 4.8 | 9.7 | 0.00 | 0.00 | 0.00 | 72 | 1008.7 |
| 20260506162554 | 21 | 120 | 0.0 | 0.0 | 0.00 | 0.00 | 0.00 | 70 | 1008.8 |
| 20260506162051 | 21 | 143 | 0.0 | 0.0 | 0.00 | 0.00 | 0.00 | 70 | 1008.8 |
| 20260506161549 | 21 | 42 | 1.6 | 1.6 | 0.00 | 0.00 | 0.00 | 66 | 1009.0 |
| 20260506161045 | 22 | 242 | 0.0 | 1.6 | 0.00 | 0.00 | 0.00 | 64 | 1009.0 |
| 20260506160543 | 21 | 324 | 4.8 | 8.0 | 0.00 | 0.00 | 0.00 | 65 | 1009.0 |
| 20260506160040 | 21 | 332 | 1.6 | 3.2 | 0.00 | 0.00 | 0.00 | 66 | 1009.1 |
| 20260506155539 | 21 | 159 | 0.0 | 0.0 | 0.00 | 0.00 | 0.00 | 66 | 1009.2 |
| 20260506153715 | 21 | 162 | 1.6 | 3.2 | 0.00 | 0.00 | 0.00 | 66 | 1009.2 |
| 20260506153213 | 21 | 122 | 0.0 | 1.6 | 0.00 | 0.00 | 0.00 | 65 | 1009.0 |
| 20260506152709 | 21 | 248 | 0.0 | 0.0 | 0.00 | 0.00 | 0.00 | 65 | 1009.0 |
| 20260506152207 | 21 | 217 | 4.8 | 4.8 | 0.00 | 0.00 | 0.00 | 65 | 1009.2 |
| 20260506151706 | 21 | 251 | 4.8 | 9.7 | 0.00 | 0.00 | 0.00 | 65 | 1009.3 |
| 20260506151202 | 21 | 232 | 4.8 | 8.0 | 0.00 | 0.00 | 0.00 | 64 | 1009.3 |
| 20260506150658 | 21 | 154 | 0.0 | 1.6 | 0.00 | 0.00 | 0.00 | 64 | 1009.2 |
| 20260506150155 | 21 | 120 | 0.0 | 0.0 | 0.00 | 0.00 | 0.00 | 64 | 1009.2 |
| 20260506145652 | 21 | 320 | 11.3 | 20.9 | 0.00 | 0.00 | 0.00 | 63 | 1009.2 |
| 20260506145149 | 21 | 216 | 4.8 | 8.0 | 0.00 | 0.00 | 0.00 | 64 | 1009.3 |
| 20260506144647 | 21 | 178 | 0.0 | 0.0 | 0.00 | 0.00 | 0.00 | 64 | 1009.3 |
| 20260506144143 | 20 | 148 | 0.0 | 3.2 | 0.00 | 0.00 | 0.00 | 65 | 1009.2 |
| 20260506143641 | 20 | 135 | 3.2 | 4.8 | 0.00 | 0.00 | 0.00 | 64 | 1009.2 |
| 20260506143139 | 20 | 125 | 0.0 | 1.6 | 0.00 | 0.00 | 0.00 | 65 | 1009.3 |
| 20260506142637 | 20 | 259 | 1.6 | 3.2 | 0.00 | 0.00 | 0.00 | 64 | 1009.4 |
| 20260506142135 | 21 | 158 | 0.0 | 0.0 | 0.00 | 0.00 | 0.00 | 64 | 1009.4 |
| 20260506141632 | 21 | 306 | 0.0 | 0.0 | 0.00 | 0.00 | 0.00 | 64 | 1009.5 |
| 20260506141130 | 21 | 251 | 4.8 | 9.7 | 0.00 | 0.00 | 0.00 | 63 | 1009.4 |
| 20260506140628 | 21 | 359 | 0.0 | 3.2 | 0.00 | 0.00 | 0.00 | 63 | 1009.6 |
| 20260506140125 | 21 | 106 | 0.0 | 0.0 | 0.00 | 0.00 | 0.00 | 63 | 1009.1 |
| 20260506135622 | 21 | 163 | 0.0 | 0.0 | 0.00 | 0.00 | 0.00 | 65 | 1009.0 |
| 20260506135118 | 20 | 141 | 1.6 | 1.6 | 0.00 | 0.00 | 0.00 | 64 | 1008.9 |
| 20260506134614 | 20 | 179 | 0.0 | 3.2 | 0.00 | 0.00 | 0.00 | 65 | 1009.2 |
| 20260506134110 | 20 | 203 | 1.6 | 4.8 | 0.00 | 0.00 | 0.00 | 65 | 1009.3 |
| 20260506133608 | 20 | 119 | 6.4 | 11.3 | 0.00 | 0.00 | 0.00 | 65 | 1009.1 |
| 20260506133104 | 20 | 265 | 3.2 | 4.8 | 0.00 | 0.00 | 0.00 | 65 | 1009.1 |
| 20260506132602 | 21 | 114 | 0.0 | 1.6 | 0.00 | 0.00 | 0.00 | 64 | 1009.1 |
| 20260506132059 | 21 | 164 | 6.4 | 9.7 | 0.00 | 0.00 | 0.00 | 64 | 1009.2 |
| 20260506131556 | 21 | 239 | 3.2 | 3.2 | 0.00 | 0.00 | 0.00 | 64 | 1009.4 |
| 20260506131052 | 21 | 151 | 0.0 | 0.0 | 0.00 | 0.00 | 0.00 | 64 | 1009.6 |
| 20260506130549 | 21 | 192 | 4.8 | 9.7 | 0.00 | 0.00 | 0.00 | 64 | 1009.5 |
| 20260506130047 | 21 | 273 | 0.0 | 3.2 | 0.00 | 0.00 | 0.00 | 64 | 1009.6 |
| 20260506125545 | 20 | 181 | 4.8 | 8.0 | 0.00 | 0.00 | 0.00 | 65 | 1009.8 |
| 20260506125042 | 20 | 119 | 0.0 | 1.6 | 0.00 | 0.00 | 0.00 | 66 | 1009.6 |
| 20260506124540 | 20 | 221 | 0.0 | 0.0 | 0.00 | 0.00 | 0.00 | 67 | 1009.6 |
| 20260506124038 | 20 | 135 | 0.0 | 0.0 | 0.00 | 0.00 | 0.00 | 69 | 1009.4 |
| 20260506123535 | 20 | 128 | 0.0 | 1.6 | 0.00 | 0.00 | 0.00 | 69 | 1009.5 |
| 20260506123034 | 20 | 192 | 1.6 | 3.2 | 0.00 | 0.00 | 0.00 | 69 | 1009.5 |
| 20260506122530 | 20 | 246 | 3.2 | 16.1 | 0.00 | 0.00 | 0.00 | 68 | 1009.6 |
| 20260506122028 | 20 | 256 | 1.6 | 3.2 | 0.00 | 0.00 | 0.00 | 70 | 1009.7 |
| 20260506121525 | 19 | 145 | 1.6 | 4.8 | 0.00 | 0.00 | 0.00 | 71 | 1009.8 |
| 20260506121021 | 18 | 204 | 0.0 | 0.0 | 0.00 | 0.00 | 0.00 | 72 | 1009.7 |
| 20260506120519 | 18 | 287 | 6.4 | 9.7 | 0.00 | 0.00 | 0.00 | 73 | 1009.6 |
| 20260506120017 | 18 | 265 | 1.6 | 4.8 | 0.00 | 0.00 | 0.00 | 72 | 1009.6 |
| 20260506115514 | 19 | 156 | 0.0 | 1.6 | 0.00 | 0.00 | 0.00 | 72 | 1009.6 |
| 20260506115012 | 18 | 198 | 0.0 | 0.0 | 0.00 | 0.00 | 0.00 | 73 | 1009.7 |
| 20260506114509 | 18 | 95 | 1.6 | 3.2 | 0.00 | 0.00 | 0.00 | 74 | 1009.9 |
| 20260506114008 | 18 | 228 | 0.0 | 0.0 | 0.00 | 0.00 | 0.00 | 75 | 1009.5 |
| 20260506113505 | 18 | 216 | 3.2 | 4.8 | 0.00 | 0.00 | 0.00 | 76 | 1009.6 |
| 20260506113002 | 18 | 130 | 0.0 | 0.0 | 0.00 | 0.00 | 0.00 | 76 | 1009.7 |
| 20260506112459 | 17 | 71 | 3.2 | 9.7 | 0.00 | 0.00 | 0.00 | 77 | 1009.8 |
| 20260506111956 | 17 | 200 | 1.6 | 3.2 | 0.00 | 0.00 | 0.00 | 78 | 1009.6 |
| 20260506111454 | 17 | 206 | 0.0 | 1.6 | 0.00 | 0.00 | 0.00 | 78 | 1009.4 |
| 20260506110951 | 17 | 253 | 0.0 | 1.6 | 0.00 | 0.00 | 0.00 | 79 | 1009.8 |
| 20260506110449 | 17 | 118 | 1.6 | 3.2 | 0.00 | 0.00 | 0.00 | 79 | 1009.9 |
| 20260506105945 | 17 | 133 | 0.0 | 0.0 | 0.00 | 0.00 | 0.00 | 79 | 1009.7 |
| 20260506105442 | 17 | 308 | 1.6 | 3.2 | 0.00 | 0.00 | 0.00 | 79 | 1009.7 |
| 20260506104939 | 17 | 118 | 0.0 | 0.0 | 0.00 | 0.00 | 0.00 | 80 | 1009.7 |
| 20260506104437 | 17 | 215 | 0.0 | 1.6 | 0.00 | 0.00 | 0.00 | 80 | 1009.5 |
| 20260506103935 | 17 | 130 | 0.0 | 0.0 | 0.00 | 0.00 | 0.00 | 80 | 1009.6 |
| 20260506103432 | 17 | 22 | 0.0 | 1.6 | 0.00 | 0.00 | 0.00 | 80 | 1009.6 |
| 20260506102929 | 17 | 74 | 1.6 | 4.8 | 0.00 | 0.00 | 0.00 | 80 | 1009.6 |
| 20260506102427 | 17 | 152 | 0.0 | 1.6 | 0.00 | 0.00 | 0.00 | 80 | 1009.7 |
| 20260506101924 | 17 | 351 | 3.2 | 4.8 | 0.00 | 0.00 | 0.00 | 80 | 1009.7 |
| 20260506101420 | 17 | 205 | 0.0 | 0.0 | 0.00 | 0.00 | 0.00 | 80 | 1009.7 |
| 20260506100918 | 16 | 215 | 0.0 | 1.6 | 0.00 | 0.00 | 0.00 | 80 | 1009.6 |
| 20260506100416 | 16 | 183 | 0.0 | 0.0 | 0.00 | 0.00 | 0.00 | 81 | 1009.6 |
| 20260506095914 | 17 | 203 | 0.0 | 1.6 | 0.00 | 0.00 | 0.00 | 81 | 1009.4 |
| 20260506095412 | 17 | 204 | 0.0 | 0.0 | 0.00 | 0.00 | 0.00 | 81 | 1009.3 |
| 20260506094908 | 16 | 137 | 1.6 | 3.2 | 0.00 | 0.00 | 0.00 | 81 | 1009.2 |
| 20260506094407 | 17 | 138 | 0.0 | 1.6 | 0.00 | 0.00 | 0.00 | 82 | 1009.5 |
| 20260506093904 | 17 | 151 | 0.0 | 0.0 | 0.00 | 0.00 | 0.00 | 82 | 1009.5 |
| 20260506093401 | 17 | 138 | 0.0 | 0.0 | 0.00 | 0.00 | 0.00 | 82 | 1009.4 |
| 20260506092859 | 17 | 260 | 0.0 | 0.0 | 0.00 | 0.00 | 0.00 | 82 | 1009.3 |
| 20260506092357 | 17 | 153 | 0.0 | 0.0 | 0.00 | 0.00 | 0.00 | 83 | 1009.2 |
| 20260506091853 | 17 | 103 | 1.6 | 3.2 | 0.00 | 0.00 | 0.00 | 82 | 1009.4 |
| 20260506091351 | 17 | 136 | 0.0 | 0.0 | 0.00 | 0.00 | 0.00 | 82 | 1009.5 |
| 20260506090848 | 17 | 154 | 0.0 | 0.0 | 0.00 | 0.00 | 0.00 | 83 | 1009.5 |
| 20260506090346 | 17 | 160 | 0.0 | 0.0 | 0.00 | 0.00 | 0.00 | 82 | 1009.4 |
| 20260506085842 | 17 | 181 | 0.0 | 0.0 | 0.00 | 0.00 | 0.00 | 82 | 1009.7 |
| 20260506085338 | 17 | 160 | 1.6 | 3.2 | 0.00 | 0.00 | 0.00 | 82 | 1009.4 |
| 20260506084835 | 17 | 182 | 0.0 | 0.0 | 0.00 | 0.00 | 0.00 | 83 | 1009.6 |
| 20260506084332 | 17 | 120 | 0.0 | 0.0 | 0.00 | 0.00 | 0.00 | 83 | 1009.5 |
| 20260506083828 | 17 | 243 | 3.2 | 4.8 | 0.00 | 0.00 | 0.00 | 83 | 1009.7 |
| 20260506083326 | 17 | 143 | 0.0 | 0.0 | 0.00 | 0.00 | 0.00 | 83 | 1009.7 |
| 20260506082824 | 17 | 151 | 0.0 | 0.0 | 0.00 | 0.00 | 0.00 | 83 | 1009.8 |
| 20260506082320 | 17 | 171 | 0.0 | 0.0 | 0.00 | 0.00 | 0.00 | 83 | 1009.7 |
| 20260506081816 | 17 | 231 | 1.6 | 3.2 | 0.00 | 0.00 | 0.00 | 82 | 1009.9 |
| 20260506081314 | 17 | 108 | 0.0 | 0.0 | 0.00 | 0.00 | 0.00 | 83 | 1009.8 |
| 20260506080812 | 17 | 171 | 0.0 | 0.0 | 0.00 | 0.00 | 0.00 | 82 | 1009.8 |
| 20260506080308 | 17 | 207 | 0.0 | 0.0 | 0.00 | 0.00 | 0.00 | 82 | 1009.8 |
| 20260506073252 | 17 | 117 | 0.0 | 0.0 | 0.00 | 0.00 | 0.00 | 82 | 1009.8 |
| 20260506072749 | 17 | 119 | 0.0 | 0.0 | 0.00 | 0.00 | 0.00 | 82 | 1009.7 |
| 20260506072246 | 17 | 149 | 0.0 | 0.0 | 0.00 | 0.00 | 0.00 | 82 | 1009.8 |
| 20260506071744 | 17 | 244 | 0.0 | 1.6 | 0.00 | 0.00 | 0.00 | 82 | 1009.8 |
| 20260506071242 | 17 | 122 | 0.0 | 1.6 | 0.00 | 0.00 | 0.00 | 82 | 1009.9 |
| 20260506070738 | 17 | 195 | 0.0 | 0.0 | 0.00 | 0.00 | 0.00 | 82 | 1009.9 |
| 20260506070235 | 17 | 204 | 0.0 | 0.0 | 0.00 | 0.00 | 0.00 | 82 | 1010.0 |
| 20260506062212 | 17 | 284 | 8.0 | 14.5 | 0.00 | 0.00 | 0.00 | 81 | 1009.9 |
| 20260506061708 | 17 | 179 | 0.0 | 0.0 | 0.00 | 0.00 | 0.00 | 81 | 1010.0 |
| 20260506061206 | 17 | 342 | 0.0 | 1.6 | 0.00 | 0.00 | 0.00 | 81 | 1009.9 |
| 20260506060704 | 18 | 124 | 1.6 | 3.2 | 0.00 | 0.00 | 0.00 | 80 | 1010.0 |
| 20260506060201 | 18 | 208 | 0.0 | 1.6 | 0.00 | 0.00 | 0.00 | 80 | 1009.9 |
| 20260506051133 | 18 | 211 | 0.0 | 0.0 | 0.00 | 0.00 | 0.00 | 78 | 1010.5 |
| 20260506050631 | 18 | 183 | 0.0 | 0.0 | 0.00 | 0.00 | 0.00 | 78 | 1010.4 |
| 20260506050128 | 18 | 174 | 0.0 | 0.0 | 0.00 | 0.00 | 0.00 | 77 | 1010.5 |
| 20260506045121 | 18 | 140 | 4.8 | 9.7 | 0.00 | 0.00 | 0.00 | 77 | 1010.6 |
| 20260506044619 | 18 | 190 | 0.0 | 3.2 | 0.00 | 0.00 | 0.00 | 77 | 1010.5 |
| 20260506044116 | 18 | 154 | 0.0 | 1.6 | 0.00 | 0.00 | 0.00 | 77 | 1010.7 |
| 20260506043613 | 18 | 87 | 0.0 | 0.0 | 0.00 | 0.00 | 0.00 | 77 | 1010.5 |
| 20260506043111 | 18 | 190 | 0.0 | 0.0 | 0.00 | 0.00 | 0.00 | 76 | 1010.6 |
| 20260506042610 | 18 | 162 | 0.0 | 0.0 | 0.00 | 0.00 | 0.00 | 76 | 1010.5 |
| 20260506042107 | 18 | 306 | 8.0 | 11.3 | 0.00 | 0.00 | 0.00 | 76 | 1010.5 |
| 20260506041606 | 18 | 189 | 3.2 | 9.7 | 0.00 | 0.00 | 0.00 | 75 | 1010.4 |
| 20260506041102 | 18 | 191 | 0.0 | 0.0 | 0.00 | 0.00 | 0.00 | 75 | 1010.4 |
| 20260506040600 | 18 | 250 | 0.0 | 0.0 | 0.00 | 0.00 | 0.00 | 75 | 1010.6 |
| 20260506040056 | 18 | 173 | 0.0 | 0.0 | 0.00 | 0.00 | 0.00 | 75 | 1010.5 |
| 20260506035553 | 18 | 231 | 1.6 | 3.2 | 0.00 | 0.00 | 0.00 | 75 | 1010.6 |
| 20260506035050 | 19 | 128 | 4.8 | 4.8 | 0.00 | 0.00 | 0.00 | 75 | 1010.7 |
| 20260506034547 | 19 | 146 | 0.0 | 0.0 | 0.00 | 0.00 | 0.00 | 74 | 1010.3 |
| 20260506034044 | 19 | 142 | 3.2 | 8.0 | 0.00 | 0.00 | 0.00 | 74 | 1010.6 |
| 20260506033541 | 19 | 53 | 0.0 | 1.6 | 0.00 | 0.00 | 0.00 | 74 | 1010.5 |
| 20260506033038 | 19 | 131 | 1.6 | 3.2 | 0.00 | 0.00 | 0.00 | 74 | 1010.7 |
| 20260506032536 | 19 | 174 | 0.0 | 0.0 | 0.00 | 0.00 | 0.00 | 74 | 1010.7 |
| 20260506032032 | 19 | 219 | 0.0 | 1.6 | 0.00 | 0.00 | 0.00 | 74 | 1010.5 |
| 20260506031530 | 19 | 157 | 0.0 | 0.0 | 0.00 | 0.00 | 0.00 | 73 | 1010.5 |
| 20260506031027 | 19 | 22 | 0.0 | 1.6 | 0.00 | 0.00 | 0.00 | 73 | 1010.5 |
| 20260506030525 | 19 | 149 | 1.6 | 1.6 | 0.00 | 0.00 | 0.00 | 73 | 1010.6 |
| 20260506030022 | 19 | 173 | 8.0 | 12.9 | 0.00 | 0.00 | 0.00 | 72 | 1010.6 |
| 20260506025519 | 20 | 230 | 0.0 | 3.2 | 0.00 | 0.00 | 0.00 | 72 | 1010.5 |
| 20260506025015 | 20 | 51 | 4.8 | 8.0 | 0.00 | 0.00 | 0.00 | 71 | 1010.5 |
| 20260506024512 | 20 | 97 | 0.0 | 0.0 | 0.00 | 0.00 | 0.00 | 72 | 1010.5 |
| 20260506024008 | 20 | 164 | 0.0 | 0.0 | 0.00 | 0.00 | 0.00 | 71 | 1010.7 |
| 20260506023504 | 20 | 240 | 3.2 | 4.8 | 0.00 | 0.00 | 0.00 | 71 | 1010.7 |
| 20260506023002 | 20 | 127 | 0.0 | 1.6 | 0.00 | 0.00 | 0.00 | 71 | 1010.8 |
| 20260506022459 | 20 | 204 | 0.0 | 0.0 | 0.00 | 0.00 | 0.00 | 70 | 1010.6 |
| 20260506021957 | 20 | 168 | 0.0 | 0.0 | 0.00 | 0.00 | 0.00 | 70 | 1010.7 |
| 20260506021454 | 20 | 133 | 0.0 | 0.0 | 0.00 | 0.00 | 0.00 | 69 | 1010.5 |
| 20260506020951 | 20 | 154 | 0.0 | 0.0 | 0.00 | 0.00 | 0.00 | 68 | 1010.8 |
| 20260506020449 | 20 | 229 | 3.2 | 11.3 | 0.00 | 0.00 | 0.00 | 68 | 1010.7 |
| 20260506015946 | 20 | 63 | 0.0 | 0.0 | 0.00 | 0.00 | 0.00 | 67 | 1010.6 |
| 20260506015443 | 20 | 116 | 0.0 | 3.2 | 0.00 | 0.00 | 0.00 | 66 | 1010.6 |
| 20260506014940 | 20 | 190 | 0.0 | 1.6 | 0.00 | 0.00 | 0.00 | 65 | 1010.5 |
| 20260506014437 | 20 | 219 | 0.0 | 1.6 | 0.00 | 0.00 | 0.00 | 65 | 1010.4 |
| 20260506013933 | 20 | 138 | 0.0 | 0.0 | 0.00 | 0.00 | 0.00 | 64 | 1010.4 |
| 20260506013432 | 20 | 161 | 0.0 | 0.0 | 0.00 | 0.00 | 0.00 | 64 | 1010.4 |
| 20260506012927 | 20 | 171 | 0.0 | 1.6 | 0.00 | 0.00 | 0.00 | 63 | 1010.4 |
| 20260506012424 | 20 | 206 | 0.0 | 1.6 | 0.00 | 0.00 | 0.00 | 62 | 1010.2 |
| 20260506011921 | 20 | 246 | 6.4 | 9.7 | 0.00 | 0.00 | 0.00 | 62 | 1010.6 |
| 20260506011418 | 21 | 173 | 0.0 | 1.6 | 0.00 | 0.00 | 0.00 | 61 | 1010.3 |
| 20260506010915 | 21 | 162 | 0.0 | 1.6 | 0.00 | 0.00 | 0.00 | 61 | 1010.3 |
| 20260506010414 | 21 | 96 | 0.0 | 0.0 | 0.00 | 0.00 | 0.00 | 60 | 1010.4 |
| 20260506005910 | 21 | 197 | 0.0 | 0.0 | 0.00 | 0.00 | 0.00 | 60 | 1010.1 |
| 20260506005408 | 21 | 131 | 0.0 | 0.0 | 0.00 | 0.00 | 0.00 | 60 | 1010.3 |
| 20260506004903 | 21 | 285 | 0.0 | 1.6 | 0.00 | 0.00 | 0.00 | 60 | 1009.9 |
| 20260506004401 | 21 | 188 | 0.0 | 0.0 | 0.00 | 0.00 | 0.00 | 60 | 1009.8 |
| 20260506003857 | 21 | 248 | 0.0 | 0.0 | 0.00 | 0.00 | 0.00 | 60 | 1009.9 |
| 20260506003353 | 21 | 133 | 0.0 | 0.0 | 0.00 | 0.00 | 0.00 | 60 | 1009.8 |
| 20260506002850 | 21 | 225 | 0.0 | 0.0 | 0.00 | 0.00 | 0.00 | 60 | 1009.8 |
| 20260506002346 | 21 | 327 | 0.0 | 1.6 | 0.00 | 0.00 | 0.00 | 60 | 1009.7 |
| 20260506001841 | 21 | 133 | 1.6 | 4.8 | 0.00 | 0.00 | 0.00 | 60 | 1009.6 |
| 20260506001339 | 21 | 142 | 0.0 | 0.0 | 0.00 | 0.00 | 0.00 | 60 | 1009.7 |
| 20260506000836 | 21 | 177 | 0.0 | 1.6 | 0.00 | 0.00 | 0.00 | 60 | 1009.8 |
| 20260506000334 | 21 | 22 | 0.0 | 1.6 | 0.00 | 0.00 | 0.00 | 59 | 1009.6 |
| 20260505235830 | 21 | 163 | 0.0 | 0.0 | 0.00 | 0.00 | 0.00 | 59 | 1009.7 |
| 20260505235328 | 22 | 226 | 4.8 | 9.7 | 0.00 | 0.00 | 0.00 | 59 | 1009.6 |
| 20260505234824 | 22 | 169 | 0.0 | 0.0 | 0.00 | 0.00 | 0.00 | 59 | 1009.6 |
| 20260505234322 | 22 | 190 | 0.0 | 1.6 | 0.00 | 0.00 | 0.00 | 58 | 1009.7 |
| 20260505233819 | 22 | 138 | 4.8 | 9.7 | 0.00 | 0.00 | 0.00 | 57 | 1009.5 |
| 20260505233317 | 22 | 80 | 0.0 | 0.0 | 0.00 | 0.00 | 0.00 | 56 | 1009.6 |
| 20260505232814 | 22 | 139 | 0.0 | 0.0 | 0.00 | 0.00 | 0.00 | 55 | 1009.3 |
| 20260505232311 | 22 | 147 | 0.0 | 0.0 | 0.00 | 0.00 | 0.00 | 55 | 1009.3 |
| 20260505231808 | 23 | 195 | 0.0 | 0.0 | 0.00 | 0.00 | 0.00 | 54 | 1009.3 |
| 20260505231306 | 23 | 102 | 0.0 | 0.0 | 0.00 | 0.00 | 0.00 | 54 | 1009.4 |
| 20260505230804 | 23 | 135 | 1.6 | 1.6 | 0.00 | 0.00 | 0.00 | 53 | 1009.3 |
| 20260505230301 | 23 | 152 | 1.6 | 3.2 | 0.00 | 0.00 | 0.00 | 52 | 1009.2 |
| 20260505225757 | 23 | 205 | 0.0 | 0.0 | 0.00 | 0.00 | 0.00 | 51 | 1009.1 |
| 20260505225255 | 24 | 180 | 0.0 | 0.0 | 0.00 | 0.00 | 0.00 | 49 | 1009.1 |
| 20260505224749 | 24 | 164 | 0.0 | 0.0 | 0.00 | 0.00 | 0.00 | 47 | 1009.1 |
| 20260505224247 | 24 | 262 | 1.6 | 4.8 | 0.00 | 0.00 | 0.00 | 46 | 1009.1 |
| 20260505223745 | 25 | 198 | 1.6 | 4.8 | 0.00 | 0.00 | 0.00 | 45 | 1009.1 |
| 20260505223241 | 25 | 123 | 0.0 | 0.0 | 0.00 | 0.00 | 0.00 | 45 | 1009.1 |
| 20260505222737 | 25 | 145 | 0.0 | 0.0 | 0.00 | 0.00 | 0.00 | 43 | 1009.2 |
| 20260505222233 | 26 | 109 | 8.0 | 9.7 | 0.00 | 0.00 | 0.00 | 42 | 1008.9 |
| 20260505221731 | 26 | 66 | 0.0 | 1.6 | 0.00 | 0.00 | 0.00 | 42 | 1008.8 |
| 20260505221227 | 26 | 171 | 0.0 | 1.6 | 0.00 | 0.00 | 0.00 | 42 | 1008.7 |
| 20260505220724 | 26 | 201 | 0.0 | 1.6 | 0.00 | 0.00 | 0.00 | 41 | 1008.8 |
| 20260505220222 | 26 | 200 | 3.2 | 4.8 | 0.00 | 0.00 | 0.00 | 40 | 1008.9 |
| 20260505215720 | 26 | 139 | 6.4 | 11.3 | 0.00 | 0.00 | 0.00 | 40 | 1008.7 |
| 20260505215217 | 26 | 104 | 1.6 | 3.2 | 0.00 | 0.00 | 0.00 | 39 | 1008.7 |
| 20260505214715 | 26 | 202 | 0.0 | 0.0 | 0.00 | 0.00 | 0.00 | 40 | 1008.7 |
| 20260505214212 | 26 | 113 | 3.2 | 3.2 | 0.00 | 0.00 | 0.00 | 39 | 1008.6 |
| 20260505213709 | 26 | 80 | 1.6 | 4.8 | 0.00 | 0.00 | 0.00 | 38 | 1008.5 |
| 20260505213206 | 27 | 220 | 6.4 | 8.0 | 0.00 | 0.00 | 0.00 | 37 | 1008.7 |
| 20260505212702 | 27 | 162 | 1.6 | 3.2 | 0.00 | 0.00 | 0.00 | 38 | 1008.6 |
| 20260505212200 | 27 | 170 | 3.2 | 4.8 | 0.00 | 0.00 | 0.00 | 37 | 1008.5 |
| 20260505211656 | 27 | 155 | 6.4 | 8.0 | 0.00 | 0.00 | 0.00 | 36 | 1008.5 |
| 20260505211154 | 27 | 177 | 1.6 | 4.8 | 0.00 | 0.00 | 0.00 | 35 | 1008.5 |
| 20260505210650 | 27 | 102 | 1.6 | 4.8 | 0.00 | 0.00 | 0.00 | 36 | 1008.4 |
| 20260505210147 | 27 | 252 | 1.6 | 4.8 | 0.00 | 0.00 | 0.00 | 36 | 1008.4 |
| 20260505205644 | 28 | 159 | 0.0 | 1.6 | 0.00 | 0.00 | 0.00 | 37 | 1008.2 |
| 20260505205143 | 27 | 188 | 4.8 | 8.0 | 0.00 | 0.00 | 0.00 | 35 | 1008.4 |
| 20260505204639 | 28 | 285 | 8.0 | 9.7 | 0.00 | 0.00 | 0.00 | 35 | 1008.0 |
| 20260505204137 | 28 | 224 | 0.0 | 1.6 | 0.00 | 0.00 | 0.00 | 35 | 1008.2 |
| 20260505203634 | 28 | 211 | 0.0 | 1.6 | 0.00 | 0.00 | 0.00 | 35 | 1008.1 |
| 20260505203131 | 28 | 247 | 1.6 | 4.8 | 0.00 | 0.00 | 0.00 | 36 | 1008.3 |
| 20260505202626 | 28 | 137 | 0.0 | 1.6 | 0.00 | 0.00 | 0.00 | 35 | 1008.3 |
| 20260505202122 | 28 | 181 | 3.2 | 4.8 | 0.00 | 0.00 | 0.00 | 36 | 1008.0 |
| 20260505201619 | 28 | 121 | 1.6 | 3.2 | 0.00 | 0.00 | 0.00 | 36 | 1008.3 |
| 20260505201117 | 28 | 257 | 1.6 | 1.6 | 0.00 | 0.00 | 0.00 | 37 | 1008.4 |
| 20260505200615 | 28 | 175 | 4.8 | 9.7 | 0.00 | 0.00 | 0.00 | 36 | 1008.3 |
| 20260505200111 | 28 | 183 | 3.2 | 9.7 | 0.00 | 0.00 | 0.00 | 36 | 1008.3 |
| 20260505195608 | 29 | 353 | 1.6 | 3.2 | 0.00 | 0.00 | 0.00 | 37 | 1008.4 |
| 20260505195105 | 29 | 269 | 1.6 | 3.2 | 0.00 | 0.00 | 0.00 | 37 | 1008.4 |
| 20260505194602 | 29 | 221 | 1.6 | 3.2 | 0.00 | 0.00 | 0.00 | 37 | 1008.5 |
| 20260505194058 | 29 | 84 | 3.2 | 4.8 | 0.00 | 0.00 | 0.00 | 36 | 1008.5 |
| 20260505193555 | 29 | 236 | 3.2 | 3.2 | 0.00 | 0.00 | 0.00 | 37 | 1008.8 |
| 20260505193052 | 29 | 158 | 4.8 | 9.7 | 0.00 | 0.00 | 0.00 | 37 | 1008.2 |
| 20260505192551 | 29 | 240 | 3.2 | 3.2 | 0.00 | 0.00 | 0.00 | 38 | 1008.6 |
| 20260505192048 | 28 | 260 | 4.8 | 8.0 | 0.00 | 0.00 | 0.00 | 36 | 1008.6 |
| 20260505191546 | 29 | 112 | 3.2 | 4.8 | 0.00 | 0.00 | 0.00 | 35 | 1008.9 |
| 20260505191043 | 29 | 209 | 1.6 | 1.6 | 0.00 | 0.00 | 0.00 | 36 | 1008.6 |
| 20260505190538 | 29 | 237 | 3.2 | 4.8 | 0.00 | 0.00 | 0.00 | 34 | 1009.1 |
| 20260505190034 | 29 | 166 | 4.8 | 4.8 | 0.00 | 0.00 | 0.00 | 38 | 1009.0 |
| 20260505185531 | 29 | 227 | 4.8 | 4.8 | 0.00 | 0.00 | 0.00 | 35 | 1009.1 |
| 20260505185027 | 29 | 264 | 3.2 | 8.0 | 0.00 | 0.00 | 0.00 | 35 | 1009.2 |
| 20260505184524 | 29 | 161 | 3.2 | 8.0 | 0.00 | 0.00 | 0.00 | 36 | 1009.2 |
| 20260505184021 | 29 | 185 | 0.0 | 1.6 | 0.00 | 0.00 | 0.00 | 36 | 1009.1 |
| 20260505183512 | 29 | 159 | 3.2 | 11.3 | 0.00 | 0.00 | 0.00 | 36 | 1009.0 |